Point Vicente — WDB9763 — position and weather

sailwx.info

Track history (hours):
 
Tides and Currents Weather Stations Pressure Air Temp Water Temp Dewpoint Dewpoint Depression Visibility Wind Speed Wind Dir Waves Ship Positions

Point Vicente

Owner: Foss Maritime Company, Seattle, WA. More information available from US FCC via Universal Licensing System and Coast Guard Vessel Documentation Center.

Last reported at 2016-Aug-28 04:34 UTC. Time now 2016-Aug-28 05:12 UTC.
Position N 37°54' W 122°22'.

Length 32 m; draft 4.3 m.

Type: Tug. MMSI: 366982330.

Date/timePositionNaut miles runAvg speedWind from/ knotsBaromVisibWave heightAir tempDewpointWater temp
2016-Aug-28 04:34N 37°54' W 122°22'0 0.0
2016-Aug-28 03:34N 37°54' W 122°22'0 0.0
2016-Aug-28 02:33N 37°54' W 122°22'0 0.0
2016-Aug-28 01:33N 37°54' W 122°22'0 0.0
2016-Aug-28 00:34N 37°54' W 122°22'1 1.5
2016-Aug-27 23:34N 37°54' W 122°24'6 6.2
2016-Aug-27 22:34N 37°49' W 122°20'0 0.0
2016-Aug-27 21:33N 37°49' W 122°20'0 0.0
2016-Aug-27 20:34N 37°49' W 122°20'0 0.0
2016-Aug-27 19:34N 37°49' W 122°20'0 0.0
2016-Aug-27 18:33N 37°49' W 122°20'0 0.0
2016-Aug-27 17:33N 37°49' W 122°20'0 0.0
2016-Aug-27 16:33N 37°49' W 122°20'0 0.0
2016-Aug-27 15:33N 37°49' W 122°20'0 0.0
2016-Aug-27 14:34N 37°49' W 122°20'2 1.7
2016-Aug-27 13:33N 37°50' W 122°22'5 4.7
2016-Aug-27 12:33N 37°54' W 122°23'1 0.8
2016-Aug-27 11:34N 37°54' W 122°22'0 0.0
2016-Aug-27 10:33N 37°54' W 122°22'0 0.0
2016-Aug-27 09:33N 37°54' W 122°22'0 0.0
2016-Aug-27 08:33N 37°54' W 122°22'0 0.0
2016-Aug-27 07:33N 37°54' W 122°22'0 0.0
2016-Aug-27 06:30N 37°54' W 122°22'0 0.0
2016-Aug-27 04:33N 37°54' W 122°22'0 0.0
2016-Aug-27 03:33N 37°54' W 122°22'0 0.0
2016-Aug-27 02:33N 37°54' W 122°22'0 0.0
2016-Aug-27 01:33N 37°54' W 122°22'0 0.0
2016-Aug-27 00:33N 37°54' W 122°22'0 0.0
2016-Aug-26 23:33N 37°54' W 122°22'0 0.0
2016-Aug-26 22:33N 37°54' W 122°22'0 0.0
2016-Aug-26 21:30N 37°54' W 122°22'0 0.0
2016-Aug-26 20:33N 37°54' W 122°22'0 0.0
2016-Aug-26 19:33N 37°54' W 122°22'0 0.0
2016-Aug-26 18:33N 37°54' W 122°22'0 0.0
2016-Aug-26 17:33N 37°54' W 122°22'0 0.0
2016-Aug-26 16:33N 37°54' W 122°22'0 0.0
2016-Aug-26 15:33N 37°54' W 122°22'0 0.0
2016-Aug-26 14:33N 37°54' W 122°22'0 0.0
2016-Aug-26 13:33N 37°54' W 122°22'0 0.0
2016-Aug-26 12:33N 37°54' W 122°22'0 0.0
2016-Aug-26 11:33N 37°54' W 122°22'0 0.0
2016-Aug-26 10:33N 37°54' W 122°22'0 0.0
2016-Aug-26 09:33N 37°54' W 122°22'0 0.0
2016-Aug-26 08:33N 37°54' W 122°22'0 0.0
2016-Aug-26 07:33N 37°54' W 122°22'0 0.0
2016-Aug-26 06:30N 37°54' W 122°22'0 0.0
2016-Aug-26 04:33N 37°54' W 122°22'0 0.0
2016-Aug-26 03:33N 37°54' W 122°22'0 0.0
2016-Aug-26 02:33N 37°54' W 122°22'0 0.0
2016-Aug-26 01:33N 37°54' W 122°22'0 0.0
2016-Aug-26 00:33N 37°54' W 122°22'0 0.0
2016-Aug-25 23:33N 37°54' W 122°22'0 0.0
2016-Aug-25 22:33N 37°54' W 122°22'0 0.0
2016-Aug-25 21:33N 37°54' W 122°22'0 0.0
2016-Aug-25 20:33N 37°54' W 122°22'0 0.0
2016-Aug-25 19:33N 37°54' W 122°22'0 0.0
2016-Aug-25 18:27N 37°54' W 122°22'0 0.0
2016-Aug-25 17:33N 37°54' W 122°22'0 0.0
2016-Aug-25 16:27N 37°54' W 122°22'0 0.0
2016-Aug-25 15:33N 37°54' W 122°22'0 0.0
2016-Aug-25 14:33N 37°54' W 122°22'0 0.0
2016-Aug-25 13:33N 37°54' W 122°22'0 0.0
2016-Aug-25 12:33N 37°54' W 122°22'0 0.0
2016-Aug-25 11:09N 37°54' W 122°22'0 0.0
2016-Aug-25 10:33N 37°54' W 122°22'0 0.0
2016-Aug-25 09:33N 37°54' W 122°22'0 0.0
2016-Aug-25 08:33N 37°54' W 122°22'0 0.0
2016-Aug-25 07:33N 37°54' W 122°22'0 0.0
2016-Aug-25 06:33N 37°54' W 122°22'0 0.0
2016-Aug-25 04:33N 37°54' W 122°22'0 0.0
2016-Aug-25 03:33N 37°54' W 122°22'0 0.0
2016-Aug-25 02:33N 37°54' W 122°22'0 0.0
2016-Aug-25 01:33N 37°54' W 122°22'0 0.0
2016-Aug-25 00:24N 37°54' W 122°22'0 0.0
2016-Aug-24 23:33N 37°54' W 122°22'0 0.0
2016-Aug-24 22:33N 37°54' W 122°22'0 0.0
2016-Aug-24 21:33N 37°54' W 122°22'0 0.0
2016-Aug-24 20:33N 37°54' W 122°22'0 0.0
2016-Aug-24 19:33N 37°54' W 122°22'0 0.0
2016-Aug-24 18:33N 37°54' W 122°22'0 0.0
2016-Aug-24 17:30N 37°54' W 122°22'0 0.0
2016-Aug-24 16:33N 37°54' W 122°22'0 0.0
2016-Aug-24 15:33N 37°54' W 122°22'0 0.0
2016-Aug-24 14:33N 37°54' W 122°22'0 0.0
2016-Aug-24 13:27N 37°54' W 122°22'0 0.0
2016-Aug-24 12:33N 37°54' W 122°22'0 0.0
2016-Aug-24 11:33N 37°54' W 122°22'0 0.0
2016-Aug-24 10:33N 37°54' W 122°22'0 0.0
2016-Aug-24 09:33N 37°54' W 122°22'0 0.0
2016-Aug-24 08:33N 37°54' W 122°22'0 0.0
2016-Aug-24 07:33N 37°54' W 122°22'0 0.0
2016-Aug-24 06:33N 37°54' W 122°22'0 0.0
2016-Aug-24 04:21N 37°54' W 122°22'0 0.0
2016-Aug-24 03:27N 37°54' W 122°22'0 0.0
2016-Aug-24 02:33N 37°54' W 122°22'0 0.0
2016-Aug-24 01:33N 37°54' W 122°22'0 0.0
2016-Aug-24 00:27N 37°54' W 122°22'0 0.0
2016-Aug-23 23:33N 37°54' W 122°22'0 0.0
2016-Aug-23 22:21N 37°54' W 122°22'0 0.0
2016-Aug-23 21:30N 37°54' W 122°22'2 2.1
2016-Aug-23 20:33N 37°53' W 122°25'7 6.7
2016-Aug-23 19:33N 37°47' W 122°22'1 1.0
2016-Aug-23 18:31N 37°46' W 122°21'0 0.2
2016-Aug-23 17:31N 37°46' W 122°22'0 0.0
2016-Aug-23 16:31N 37°46' W 122°22'0 0.0
2016-Aug-23 15:31N 37°46' W 122°22'0 0.0
2016-Aug-23 14:31N 37°46' W 122°22'0 0.0
2016-Aug-23 13:31N 37°46' W 122°22'3 2.7
2016-Aug-23 12:34N 37°49' W 122°23'6 5.9
2016-Aug-23 11:33N 37°54' W 122°24'2 1.9
2016-Aug-23 10:30N 37°55' W 122°22'0 0.0
2016-Aug-23 09:30N 37°55' W 122°22'0 0.0
2016-Aug-23 08:33N 37°55' W 122°22'1 0.6
2016-Aug-23 07:33N 37°55' W 122°22'1 0.6
2016-Aug-23 06:33N 37°54' W 122°22'0 0.0
2016-Aug-23 05:28N 37°54' W 122°22'0 0.0
2016-Aug-23 04:31N 37°54' W 122°22'0 0.0
2016-Aug-23 03:28N 37°54' W 122°22'0 0.0
2016-Aug-23 02:31N 37°54' W 122°22'0 0.0
2016-Aug-23 01:28N 37°54' W 122°22'0 0.0
2016-Aug-23 00:34N 37°54' W 122°22'0 0.0
2016-Aug-22 23:34N 37°54' W 122°22'0 0.0
2016-Aug-22 22:33N 37°54' W 122°22'1 0.9
2016-Aug-22 21:33N 37°54' W 122°24'6 5.8
2016-Aug-22 20:34N 37°49' W 122°23'3 2.9
2016-Aug-22 19:34N 37°46' W 122°21'0 0.0
2016-Aug-22 18:33N 37°46' W 122°21'0 0.1
2016-Aug-22 17:33N 37°46' W 122°21'0 0.1
2016-Aug-22 16:34N 37°46' W 122°21'0 0.0
2016-Aug-22 15:34N 37°46' W 122°21'1 1.1
2016-Aug-22 14:33N 37°47' W 122°22'6 5.9
2016-Aug-22 13:33N 37°53' W 122°24'2 2.2
2016-Aug-22 12:33N 37°54' W 122°22'0 0.0
2016-Aug-22 11:33N 37°54' W 122°22'1 0.9
2016-Aug-22 10:33N 37°55' W 122°22'0 0.3
2016-Aug-22 09:33N 37°55' W 122°22'1 0.7
2016-Aug-22 08:33N 37°54' W 122°22'0 0.0
2016-Aug-22 07:33N 37°54' W 122°22'1 0.9
2016-Aug-22 06:34N 37°55' W 122°22'0 0.0
2016-Aug-22 05:33N 37°55' W 122°22'0 0.0
2016-Aug-22 04:33N 37°55' W 122°22'0 0.0
2016-Aug-22 03:33N 37°55' W 122°22'1 0.7
2016-Aug-22 02:30N 37°54' W 122°22'0 0.0
2016-Aug-22 01:33N 37°54' W 122°22'0 0.0
2016-Aug-22 00:33N 37°54' W 122°22'0 0.0
2016-Aug-21 23:30N 37°54' W 122°22'0 0.0
2016-Aug-21 22:33N 37°54' W 122°22'0 0.0
2016-Aug-21 21:30N 37°54' W 122°22'0 0.0
2016-Aug-21 20:30N 37°54' W 122°22'0 0.0
2016-Aug-21 19:24N 37°54' W 122°22'0 0.0
2016-Aug-21 18:30N 37°54' W 122°22'0 0.0
2016-Aug-21 17:33N 37°54' W 122°22'0 0.0
2016-Aug-21 16:24N 37°54' W 122°22'0 0.0
2016-Aug-21 15:33N 37°54' W 122°22'0 0.0
2016-Aug-21 14:30N 37°54' W 122°22'0 0.1
2016-Aug-21 13:33N 37°54' W 122°22'0 0.0
2016-Aug-21 12:33N 37°54' W 122°22'0 0.0
2016-Aug-21 11:33N 37°54' W 122°22'0 0.0
2016-Aug-21 10:30N 37°54' W 122°22'0 0.0
2016-Aug-21 09:33N 37°54' W 122°22'0 0.0
2016-Aug-21 08:33N 37°54' W 122°22'0 0.0
2016-Aug-21 07:33N 37°54' W 122°22'0 0.0
2016-Aug-21 06:33N 37°54' W 122°22'0 0.0
2016-Aug-21 05:33N 37°54' W 122°22'0 0.0
2016-Aug-21 04:30N 37°54' W 122°22'0 0.0
2016-Aug-21 03:33N 37°54' W 122°22'0 0.0
2016-Aug-21 02:33N 37°54' W 122°22'0 0.0
2016-Aug-21 01:33N 37°54' W 122°22'0 0.0
2016-Aug-21 00:33N 37°54' W 122°22'0 0.0
2016-Aug-20 23:21N 37°54' W 122°22'0 0.0
2016-Aug-20 22:27N 37°54' W 122°22'0 0.0
2016-Aug-20 21:33N 37°54' W 122°22'2 2.3
2016-Aug-20 20:33N 37°55' W 122°25'3 2.6
2016-Aug-20 19:33N 37°54' W 122°22'1 0.9
2016-Aug-20 18:33N 37°55' W 122°22'1 1.0
2016-Aug-20 17:33N 37°54' W 122°22'0 0.3
2016-Aug-20 16:32N 37°54' W 122°22'0 0.0
2016-Aug-20 15:32N 37°54' W 122°22'0 0.0
2016-Aug-20 14:32N 37°54' W 122°22'0 0.0
2016-Aug-20 13:32N 37°54' W 122°22'0 0.0
2016-Aug-20 12:32N 37°54' W 122°22'0 0.0
2016-Aug-20 11:32N 37°54' W 122°22'0 0.0
2016-Aug-20 10:32N 37°54' W 122°22'0 0.0
2016-Aug-20 09:32N 37°54' W 122°22'0 0.0
2016-Aug-20 08:32N 37°54' W 122°22'0 0.0
2016-Aug-20 07:32N 37°54' W 122°22'0 0.0
2016-Aug-20 06:26N 37°54' W 122°22'0 0.0
2016-Aug-20 05:32N 37°54' W 122°22'0 0.0
2016-Aug-20 04:32N 37°54' W 122°22'0 0.0
2016-Aug-20 03:29N 37°54' W 122°22'0 0.0
2016-Aug-20 02:32N 37°54' W 122°22'0 0.0
2016-Aug-20 01:32N 37°54' W 122°22'0 0.0
2016-Aug-20 00:20N 37°54' W 122°22'0 0.0
2016-Aug-19 23:32N 37°54' W 122°22'0 0.0
2016-Aug-19 22:29N 37°54' W 122°22'0 0.0
2016-Aug-19 21:32N 37°54' W 122°22'0 0.0
2016-Aug-19 20:29N 37°54' W 122°22'0 0.0
2016-Aug-19 19:32N 37°54' W 122°22'0 0.0
2016-Aug-19 18:32N 37°54' W 122°22'0 0.0
2016-Aug-19 17:32N 37°54' W 122°22'0 0.0
2016-Aug-19 16:32N 37°54' W 122°22'0 0.0
2016-Aug-19 15:29N 37°54' W 122°22'0 0.0
2016-Aug-19 14:32N 37°54' W 122°22'0 0.0
2016-Aug-19 13:32N 37°54' W 122°22'0 0.0
2016-Aug-19 12:32N 37°54' W 122°22'0 0.0
2016-Aug-19 11:32N 37°54' W 122°22'0 0.0
2016-Aug-19 10:32N 37°54' W 122°22'0 0.0
2016-Aug-19 09:32N 37°54' W 122°22'0 0.0
2016-Aug-19 08:32N 37°54' W 122°22'0 0.0
2016-Aug-19 07:32N 37°54' W 122°22'0 0.0
2016-Aug-19 06:26N 37°54' W 122°22'0 0.0
2016-Aug-19 05:32N 37°54' W 122°22'0 0.0
2016-Aug-19 04:29N 37°54' W 122°22'0 0.0
2016-Aug-19 03:32N 37°54' W 122°22'0 0.0
2016-Aug-19 02:29N 37°54' W 122°22'0 0.0
2016-Aug-19 01:32N 37°54' W 122°22'0 0.0
2016-Aug-19 00:26N 37°54' W 122°22'0 0.0
2016-Aug-18 23:32N 37°54' W 122°22'0 0.0
2016-Aug-18 22:32N 37°54' W 122°22'0 0.0
2016-Aug-18 21:32N 37°54' W 122°22'0 0.0
2016-Aug-18 20:26N 37°54' W 122°22'0 0.0
2016-Aug-18 19:29N 37°54' W 122°22'0 0.0
2016-Aug-18 18:32N 37°54' W 122°22'0 0.0
2016-Aug-18 17:26N 37°54' W 122°22'2 1.8
2016-Aug-18 16:34N 37°54' W 122°24'7 6.7
2016-Aug-18 15:34N 37°48' W 122°20'0 0.0
2016-Aug-18 14:34N 37°48' W 122°20'0 0.0
2016-Aug-18 13:34N 37°48' W 122°20'0 0.0
2016-Aug-18 12:34N 37°48' W 122°20'0 0.0
2016-Aug-18 11:34N 37°48' W 122°20'0 0.0
2016-Aug-18 10:34N 37°48' W 122°20'0 0.0
2016-Aug-18 09:34N 37°48' W 122°20'0 0.0
2016-Aug-18 08:34N 37°48' W 122°20'0 0.0
2016-Aug-18 07:34N 37°48' W 122°20'0 0.0
2016-Aug-18 06:34N 37°48' W 122°20'0 0.0
2016-Aug-18 05:34N 37°48' W 122°20'  
Track history (hours):
 
Tides and Currents Weather Stations Pressure Air Temp Water Temp Dewpoint Dewpoint Depression Visibility Wind Speed Wind Dir Waves Ship Positions

Point Vicente

Owner: Foss Maritime Company, Seattle, WA. More information available from US FCC via Universal Licensing System and Coast Guard Vessel Documentation Center.

Last reported at 2016-Aug-28 04:34 UTC. Time now 2016-Aug-28 05:12 UTC.
Position N 37°54' W 122°22'.

Length 32 m; draft 4.3 m.

Type: Tug. MMSI: 366982330.

Date/timePositionNaut miles runAvg speedWind from/ knotsBaromVisibWave heightAir tempDewpointWater temp
2016-Aug-28 04:34N 37°54' W 122°22'0 0.0
2016-Aug-28 03:34N 37°54' W 122°22'0 0.0
2016-Aug-28 02:33N 37°54' W 122°22'0 0.0
2016-Aug-28 01:33N 37°54' W 122°22'0 0.0
2016-Aug-28 00:34N 37°54' W 122°22'1 1.5
2016-Aug-27 23:34N 37°54' W 122°24'6 6.2
2016-Aug-27 22:34N 37°49' W 122°20'0 0.0
2016-Aug-27 21:33N 37°49' W 122°20'0 0.0
2016-Aug-27 20:34N 37°49' W 122°20'0 0.0
2016-Aug-27 19:34N 37°49' W 122°20'0 0.0
2016-Aug-27 18:33N 37°49' W 122°20'0 0.0
2016-Aug-27 17:33N 37°49' W 122°20'0 0.0
2016-Aug-27 16:33N 37°49' W 122°20'0 0.0
2016-Aug-27 15:33N 37°49' W 122°20'0 0.0
2016-Aug-27 14:34N 37°49' W 122°20'2 1.7
2016-Aug-27 13:33N 37°50' W 122°22'5 4.7
2016-Aug-27 12:33N 37°54' W 122°23'1 0.8
2016-Aug-27 11:34N 37°54' W 122°22'0 0.0
2016-Aug-27 10:33N 37°54' W 122°22'0 0.0
2016-Aug-27 09:33N 37°54' W 122°22'0 0.0
2016-Aug-27 08:33N 37°54' W 122°22'0 0.0
2016-Aug-27 07:33N 37°54' W 122°22'0 0.0
2016-Aug-27 06:30N 37°54' W 122°22'0 0.0
2016-Aug-27 04:33N 37°54' W 122°22'0 0.0
2016-Aug-27 03:33N 37°54' W 122°22'0 0.0
2016-Aug-27 02:33N 37°54' W 122°22'0 0.0
2016-Aug-27 01:33N 37°54' W 122°22'0 0.0
2016-Aug-27 00:33N 37°54' W 122°22'0 0.0
2016-Aug-26 23:33N 37°54' W 122°22'0 0.0
2016-Aug-26 22:33N 37°54' W 122°22'0 0.0
2016-Aug-26 21:30N 37°54' W 122°22'0 0.0
2016-Aug-26 20:33N 37°54' W 122°22'0 0.0
2016-Aug-26 19:33N 37°54' W 122°22'0 0.0
2016-Aug-26 18:33N 37°54' W 122°22'0 0.0
2016-Aug-26 17:33N 37°54' W 122°22'0 0.0
2016-Aug-26 16:33N 37°54' W 122°22'0 0.0
2016-Aug-26 15:33N 37°54' W 122°22'0 0.0
2016-Aug-26 14:33N 37°54' W 122°22'0 0.0
2016-Aug-26 13:33N 37°54' W 122°22'0 0.0
2016-Aug-26 12:33N 37°54' W 122°22'0 0.0
2016-Aug-26 11:33N 37°54' W 122°22'0 0.0
2016-Aug-26 10:33N 37°54' W 122°22'0 0.0
2016-Aug-26 09:33N 37°54' W 122°22'0 0.0
2016-Aug-26 08:33N 37°54' W 122°22'0 0.0
2016-Aug-26 07:33N 37°54' W 122°22'0 0.0
2016-Aug-26 06:30N 37°54' W 122°22'0 0.0
2016-Aug-26 04:33N 37°54' W 122°22'0 0.0
2016-Aug-26 03:33N 37°54' W 122°22'0 0.0
2016-Aug-26 02:33N 37°54' W 122°22'0 0.0
2016-Aug-26 01:33N 37°54' W 122°22'0 0.0
2016-Aug-26 00:33N 37°54' W 122°22'0 0.0
2016-Aug-25 23:33N 37°54' W 122°22'0 0.0
2016-Aug-25 22:33N 37°54' W 122°22'0 0.0
2016-Aug-25 21:33N 37°54' W 122°22'0 0.0
2016-Aug-25 20:33N 37°54' W 122°22'0 0.0
2016-Aug-25 19:33N 37°54' W 122°22'0 0.0
2016-Aug-25 18:27N 37°54' W 122°22'0 0.0
2016-Aug-25 17:33N 37°54' W 122°22'0 0.0
2016-Aug-25 16:27N 37°54' W 122°22'0 0.0
2016-Aug-25 15:33N 37°54' W 122°22'0 0.0
2016-Aug-25 14:33N 37°54' W 122°22'0 0.0
2016-Aug-25 13:33N 37°54' W 122°22'0 0.0
2016-Aug-25 12:33N 37°54' W 122°22'0 0.0
2016-Aug-25 11:09N 37°54' W 122°22'0 0.0
2016-Aug-25 10:33N 37°54' W 122°22'0 0.0
2016-Aug-25 09:33N 37°54' W 122°22'0 0.0
2016-Aug-25 08:33N 37°54' W 122°22'0 0.0
2016-Aug-25 07:33N 37°54' W 122°22'0 0.0
2016-Aug-25 06:33N 37°54' W 122°22'0 0.0
2016-Aug-25 04:33N 37°54' W 122°22'0 0.0
2016-Aug-25 03:33N 37°54' W 122°22'0 0.0
2016-Aug-25 02:33N 37°54' W 122°22'0 0.0
2016-Aug-25 01:33N 37°54' W 122°22'0 0.0
2016-Aug-25 00:24N 37°54' W 122°22'0 0.0
2016-Aug-24 23:33N 37°54' W 122°22'0 0.0
2016-Aug-24 22:33N 37°54' W 122°22'0 0.0
2016-Aug-24 21:33N 37°54' W 122°22'0 0.0
2016-Aug-24 20:33N 37°54' W 122°22'0 0.0
2016-Aug-24 19:33N 37°54' W 122°22'0 0.0
2016-Aug-24 18:33N 37°54' W 122°22'0 0.0
2016-Aug-24 17:30N 37°54' W 122°22'0 0.0
2016-Aug-24 16:33N 37°54' W 122°22'0 0.0
2016-Aug-24 15:33N 37°54' W 122°22'0 0.0
2016-Aug-24 14:33N 37°54' W 122°22'0 0.0
2016-Aug-24 13:27N 37°54' W 122°22'0 0.0
2016-Aug-24 12:33N 37°54' W 122°22'0 0.0
2016-Aug-24 11:33N 37°54' W 122°22'0 0.0
2016-Aug-24 10:33N 37°54' W 122°22'0 0.0
2016-Aug-24 09:33N 37°54' W 122°22'0 0.0
2016-Aug-24 08:33N 37°54' W 122°22'0 0.0
2016-Aug-24 07:33N 37°54' W 122°22'0 0.0
2016-Aug-24 06:33N 37°54' W 122°22'0 0.0
2016-Aug-24 04:21N 37°54' W 122°22'0 0.0
2016-Aug-24 03:27N 37°54' W 122°22'0 0.0
2016-Aug-24 02:33N 37°54' W 122°22'0 0.0
2016-Aug-24 01:33N 37°54' W 122°22'0 0.0
2016-Aug-24 00:27N 37°54' W 122°22'0 0.0
2016-Aug-23 23:33N 37°54' W 122°22'0 0.0
2016-Aug-23 22:21N 37°54' W 122°22'0 0.0
2016-Aug-23 21:30N 37°54' W 122°22'2 2.1
2016-Aug-23 20:33N 37°53' W 122°25'7 6.7
2016-Aug-23 19:33N 37°47' W 122°22'1 1.0
2016-Aug-23 18:31N 37°46' W 122°21'0 0.2
2016-Aug-23 17:31N 37°46' W 122°22'0 0.0
2016-Aug-23 16:31N 37°46' W 122°22'0 0.0
2016-Aug-23 15:31N 37°46' W 122°22'0 0.0
2016-Aug-23 14:31N 37°46' W 122°22'0 0.0
2016-Aug-23 13:31N 37°46' W 122°22'3 2.7
2016-Aug-23 12:34N 37°49' W 122°23'6 5.9
2016-Aug-23 11:33N 37°54' W 122°24'2 1.9
2016-Aug-23 10:30N 37°55' W 122°22'0 0.0
2016-Aug-23 09:30N 37°55' W 122°22'0 0.0
2016-Aug-23 08:33N 37°55' W 122°22'1 0.6
2016-Aug-23 07:33N 37°55' W 122°22'1 0.6
2016-Aug-23 06:33N 37°54' W 122°22'0 0.0
2016-Aug-23 05:28N 37°54' W 122°22'0 0.0
2016-Aug-23 04:31N 37°54' W 122°22'0 0.0
2016-Aug-23 03:28N 37°54' W 122°22'0 0.0
2016-Aug-23 02:31N 37°54' W 122°22'0 0.0
2016-Aug-23 01:28N 37°54' W 122°22'0 0.0
2016-Aug-23 00:34N 37°54' W 122°22'0 0.0
2016-Aug-22 23:34N 37°54' W 122°22'0 0.0
2016-Aug-22 22:33N 37°54' W 122°22'1 0.9
2016-Aug-22 21:33N 37°54' W 122°24'6 5.8
2016-Aug-22 20:34N 37°49' W 122°23'3 2.9
2016-Aug-22 19:34N 37°46' W 122°21'0 0.0
2016-Aug-22 18:33N 37°46' W 122°21'0 0.1
2016-Aug-22 17:33N 37°46' W 122°21'0 0.1
2016-Aug-22 16:34N 37°46' W 122°21'0 0.0
2016-Aug-22 15:34N 37°46' W 122°21'1 1.1
2016-Aug-22 14:33N 37°47' W 122°22'6 5.9
2016-Aug-22 13:33N 37°53' W 122°24'2 2.2
2016-Aug-22 12:33N 37°54' W 122°22'0 0.0
2016-Aug-22 11:33N 37°54' W 122°22'1 0.9
2016-Aug-22 10:33N 37°55' W 122°22'0 0.3
2016-Aug-22 09:33N 37°55' W 122°22'1 0.7
2016-Aug-22 08:33N 37°54' W 122°22'0 0.0
2016-Aug-22 07:33N 37°54' W 122°22'1 0.9
2016-Aug-22 06:34N 37°55' W 122°22'0 0.0
2016-Aug-22 05:33N 37°55' W 122°22'0 0.0
2016-Aug-22 04:33N 37°55' W 122°22'0 0.0
2016-Aug-22 03:33N 37°55' W 122°22'1 0.7
2016-Aug-22 02:30N 37°54' W 122°22'0 0.0
2016-Aug-22 01:33N 37°54' W 122°22'0 0.0
2016-Aug-22 00:33N 37°54' W 122°22'0 0.0
2016-Aug-21 23:30N 37°54' W 122°22'0 0.0
2016-Aug-21 22:33N 37°54' W 122°22'0 0.0
2016-Aug-21 21:30N 37°54' W 122°22'0 0.0
2016-Aug-21 20:30N 37°54' W 122°22'0 0.0
2016-Aug-21 19:24N 37°54' W 122°22'0 0.0
2016-Aug-21 18:30N 37°54' W 122°22'0 0.0
2016-Aug-21 17:33N 37°54' W 122°22'0 0.0
2016-Aug-21 16:24N 37°54' W 122°22'0 0.0
2016-Aug-21 15:33N 37°54' W 122°22'0 0.0
2016-Aug-21 14:30N 37°54' W 122°22'0 0.1
2016-Aug-21 13:33N 37°54' W 122°22'0 0.0
2016-Aug-21 12:33N 37°54' W 122°22'0 0.0
2016-Aug-21 11:33N 37°54' W 122°22'0 0.0
2016-Aug-21 10:30N 37°54' W 122°22'0 0.0
2016-Aug-21 09:33N 37°54' W 122°22'0 0.0
2016-Aug-21 08:33N 37°54' W 122°22'0 0.0
2016-Aug-21 07:33N 37°54' W 122°22'0 0.0
2016-Aug-21 06:33N 37°54' W 122°22'0 0.0
2016-Aug-21 05:33N 37°54' W 122°22'0 0.0
2016-Aug-21 04:30N 37°54' W 122°22'0 0.0
2016-Aug-21 03:33N 37°54' W 122°22'0 0.0
2016-Aug-21 02:33N 37°54' W 122°22'0 0.0
2016-Aug-21 01:33N 37°54' W 122°22'0 0.0
2016-Aug-21 00:33N 37°54' W 122°22'0 0.0
2016-Aug-20 23:21N 37°54' W 122°22'0 0.0
2016-Aug-20 22:27N 37°54' W 122°22'0 0.0
2016-Aug-20 21:33N 37°54' W 122°22'2 2.3
2016-Aug-20 20:33N 37°55' W 122°25'3 2.6
2016-Aug-20 19:33N 37°54' W 122°22'1 0.9
2016-Aug-20 18:33N 37°55' W 122°22'1 1.0
2016-Aug-20 17:33N 37°54' W 122°22'0 0.3
2016-Aug-20 16:32N 37°54' W 122°22'0 0.0
2016-Aug-20 15:32N 37°54' W 122°22'0 0.0
2016-Aug-20 14:32N 37°54' W 122°22'0 0.0
2016-Aug-20 13:32N 37°54' W 122°22'0 0.0
2016-Aug-20 12:32N 37°54' W 122°22'0 0.0
2016-Aug-20 11:32N 37°54' W 122°22'0 0.0
2016-Aug-20 10:32N 37°54' W 122°22'0 0.0
2016-Aug-20 09:32N 37°54' W 122°22'0 0.0
2016-Aug-20 08:32N 37°54' W 122°22'0 0.0
2016-Aug-20 07:32N 37°54' W 122°22'0 0.0
2016-Aug-20 06:26N 37°54' W 122°22'0 0.0
2016-Aug-20 05:32N 37°54' W 122°22'0 0.0
2016-Aug-20 04:32N 37°54' W 122°22'0 0.0
2016-Aug-20 03:29N 37°54' W 122°22'0 0.0
2016-Aug-20 02:32N 37°54' W 122°22'0 0.0
2016-Aug-20 01:32N 37°54' W 122°22'0 0.0
2016-Aug-20 00:20N 37°54' W 122°22'0 0.0
2016-Aug-19 23:32N 37°54' W 122°22'0 0.0
2016-Aug-19 22:29N 37°54' W 122°22'0 0.0
2016-Aug-19 21:32N 37°54' W 122°22'0 0.0
2016-Aug-19 20:29N 37°54' W 122°22'0 0.0
2016-Aug-19 19:32N 37°54' W 122°22'0 0.0
2016-Aug-19 18:32N 37°54' W 122°22'0 0.0
2016-Aug-19 17:32N 37°54' W 122°22'0 0.0
2016-Aug-19 16:32N 37°54' W 122°22'0 0.0
2016-Aug-19 15:29N 37°54' W 122°22'0 0.0
2016-Aug-19 14:32N 37°54' W 122°22'0 0.0
2016-Aug-19 13:32N 37°54' W 122°22'0 0.0
2016-Aug-19 12:32N 37°54' W 122°22'0 0.0
2016-Aug-19 11:32N 37°54' W 122°22'0 0.0
2016-Aug-19 10:32N 37°54' W 122°22'0 0.0
2016-Aug-19 09:32N 37°54' W 122°22'0 0.0
2016-Aug-19 08:32N 37°54' W 122°22'0 0.0
2016-Aug-19 07:32N 37°54' W 122°22'0 0.0
2016-Aug-19 06:26N 37°54' W 122°22'0 0.0
2016-Aug-19 05:32N 37°54' W 122°22'0 0.0
2016-Aug-19 04:29N 37°54' W 122°22'0 0.0
2016-Aug-19 03:32N 37°54' W 122°22'0 0.0
2016-Aug-19 02:29N 37°54' W 122°22'0 0.0
2016-Aug-19 01:32N 37°54' W 122°22'0 0.0
2016-Aug-19 00:26N 37°54' W 122°22'0 0.0
2016-Aug-18 23:32N 37°54' W 122°22'0 0.0
2016-Aug-18 22:32N 37°54' W 122°22'0 0.0
2016-Aug-18 21:32N 37°54' W 122°22'0 0.0
2016-Aug-18 20:26N 37°54' W 122°22'0 0.0
2016-Aug-18 19:29N 37°54' W 122°22'0 0.0
2016-Aug-18 18:32N 37°54' W 122°22'0 0.0
2016-Aug-18 17:26N 37°54' W 122°22'2 1.8
2016-Aug-18 16:34N 37°54' W 122°24'7 6.7
2016-Aug-18 15:34N 37°48' W 122°20'0 0.0
2016-Aug-18 14:34N 37°48' W 122°20'0 0.0
2016-Aug-18 13:34N 37°48' W 122°20'0 0.0
2016-Aug-18 12:34N 37°48' W 122°20'0 0.0
2016-Aug-18 11:34N 37°48' W 122°20'0 0.0
2016-Aug-18 10:34N 37°48' W 122°20'0 0.0
2016-Aug-18 09:34N 37°48' W 122°20'0 0.0
2016-Aug-18 08:34N 37°48' W 122°20'0 0.0
2016-Aug-18 07:34N 37°48' W 122°20'0 0.0
2016-Aug-18 06:34N 37°48' W 122°20'0 0.0
2016-Aug-18 05:34N 37°48' W 122°20'  

Dump ship's entire track history